Andreas Vogel

Olheiro-Chefe - Eintracht Frankfurt
3 Abr 2027
Sábado
Processo

Personalidade

Adaptabilidade (1) Ambição (6) Controvérsia (19) Lealdade (13) Pressão (12) Profissionalismo (2) Espírito Esportivo (13) Temperamento (12)

Perfil

Estilo de Treinamento Democrático
Licença Nacional A
Determinação 9
Gestão de Pessoas 6
Motivação 12
Disciplina 11
Satisfação no Trabalho
50%
Fadiga
0%
Função Olheiro-Chefe
Salário 61.9K p/s
Contrato 14.03.2029

Desempenho

Comportamento Normal
Eficácia do Treinamento
25%
Desenvolvimento do Jogador
35%
Prevenção de Lesões
55%
Implementação Tática
45%

Eventos Recentes

Avaliou um jogador agora
Participou de uma reunião de recrutamento agora
Recomendou um alvo de transferência agora
Avaliou um jogador agora
Avaliou um jogador 7d atrás
Avaliou um jogador 7d atrás
Avaliou um jogador 7d atrás
Avaliou um jogador 7d atrás

Monitorando agora

173
Jogador Clube Status Habilidade Confiança Observado Última observação Último voto
Florentino Luís Ipswich Town Ativo 141 / 133 40% 2 02.04.2027 -
Hany Mukhtar Hamburger SV Ativo 129 / 143 40% 4 02.04.2027 -
Sergio Arribas Almería Ativo 131 / 135 40% 3 31.03.2027 -
Kenny Tete Fulham Ativo 151 / 146 40% 1 31.03.2027 -
Roger Brugué Levante Ativo 136 / 123 40% 1 30.03.2027 -
Adama Traoré Deportivo La Coruña Ativo 135 / 133 40% 1 30.03.2027 -
Leon Goretzka Aston Villa Ativo 150 / 154 40% 2 29.03.2027 -
Sandro Las Palmas Ativo 131 / 141 40% 1 29.03.2027 -
Pepê Porto Ativo 139 / 139 40% 2 28.03.2027 -
Leroy Sané Galatasaray Ativo 158 / 151 40% 2 28.03.2027 -
Alexis Vega Toluca Ativo 139 / 157 40% 2 27.03.2027 -
Alejandro Zendejas Club America Ativo 151 / 151 40% 1 27.03.2027 -
Marcel Ruiz Toluca Ativo 148 / 128 40% 1 26.03.2027 -
Martin Terrier Bayer Leverkusen Ativo 145 / 141 40% 1 26.03.2027 -
Óliver Monterrey Ativo 126 / 136 40% 2 24.03.2027 -
Marco Pineda VfB Stuttgart Ativo 140 / 144 40% 2 24.03.2027 -
Ernest Nuamah Olympique Lyonnais Ativo 145 / 142 40% 2 23.03.2027 -
Sebastián Córdova Pumas UNAM Ativo 127 / 145 40% 1 23.03.2027 -
Haissem Hassan Bloemfontein Celtic Ativo 125 / 126 40% 2 22.03.2027 -
Marquinhos Spartak Moscow Ativo 118 / 127 40% 2 17.03.2027 -
Andrés Martín Racing Santander Ativo 141 / 135 40% 3 17.03.2027 -
Luiz Henrique Zenit Ativo 147 / 139 40% 2 15.03.2027 -
Roberto Alvarado Guadalajara Ativo 163 / 147 40% 1 13.03.2027 -
Lukáš Provod Slavia Prague Ativo 160 / 156 40% 1 12.03.2027 -
Isi Palazón Rayo Vallecano Ativo 138 / 142 40% 1 12.03.2027 -
Lucas Boyé Alavés Ativo 133 / 142 40% 1 11.03.2027 -
John McGinn Aston Villa Ativo 152 / 146 40% 2 09.03.2027 -
Nemanja Radonjić Crvena Zvezda Ativo 113 / 142 40% 1 09.03.2027 -
Agustín Palavecino Cruz Azul Ativo 143 / 136 40% 1 08.03.2027 -
José Paradela Cruz Azul Rejeitado 136 / 142 66% 3 07.03.2027 Rejeitar
Soufiane Rahimi Al Ain Ativo 140 / 134 40% 1 04.03.2027 -
Iñaki Williams Athletic Bilbao Ativo 158 / 153 40% 1 03.03.2027 -
Tomoki Hayakawa Feyenoord Ativo 131 / 139 40% 1 13.01.2027 -
Jakub Stolarczyk Leicester City Ativo 139 / 133 40% 1 13.01.2027 -
Helinho Toluca Ativo 126 / 130 40% 1 09.01.2027 -
Victor Osimhen Galatasaray Relatório pronto 160 / 160 66% 1 01.01.2027 Aprovar
Luiz Henrique Zenit Perdido 142 / 143 68% 1 01.01.2027 -
Francisco Trincão Al-Ahli Relatório pronto 156 / 156 66% 1 01.01.2027 -
Nadiem Amiri Mainz 05 Ativo 153 / 158 40% 4 31.12.2026 -
Malcom Al Jazira Ativo 133 / 134 40% 1 31.12.2026 -
Tariq Lamptey Queens Park Rangers Ativo 126 / 128 40% 1 30.12.2026 -
Mouctar Diakhaby Valencia Ativo 134 / 147 40% 3 29.12.2026 -
Hakan Çalhanoğlu Inter Ativo 152 / 167 40% 2 29.12.2026 -
Rúben Neves Al-Hilal Ativo 163 / 151 40% 2 27.12.2026 -
John Stones Inter Ativo 165 / 161 40% 1 27.12.2026 -
Luis Romo Guadalajara Ativo 136 / 147 40% 2 26.12.2026 -
Fran Beltrán Girona Ativo 137 / 145 40% 2 26.12.2026 -
Kristijan Jakić FC Augsburg Ativo 123 / 143 40% 1 25.12.2026 -
Guille Rosas Gijón Ativo 138 / 131 40% 1 25.12.2026 -
Gustavo Puerta Racing Santander Ativo 141 / 136 40% 2 24.12.2026 -
Israel Reyes Club America Ativo 144 / 142 40% 1 24.12.2026 -
Denis Zakaria Monaco Ativo 153 / 153 40% 1 23.12.2026 -
Azzedine Ounahi Girona Ativo 142 / 130 40% 2 22.12.2026 -
Lucas Torreira Galatasaray Ativo 141 / 159 40% 1 22.12.2026 -
Bećir Omeragić Basel Ativo 140 / 134 40% 2 21.12.2026 -
Bryan Cristante AS Roma Ativo 139 / 148 40% 1 21.12.2026 -
Reinildo Sunderland Ativo 146 / 146 40% 4 20.12.2026 -
Anel Ahmedhodžić Burnley Ativo 124 / 142 40% 1 20.12.2026 -
Michy Fellaini KV Oostende Perdido 147 / 145 40% 1 19.12.2026 -
Miguel Rodríguez Alavés Ativo 123 / 132 40% 1 19.12.2026 -
Mateo Kovačić Manchester City Ativo 151 / 157 40% 2 18.12.2026 -
Hidemasa Morita Hull City Ativo 143 / 139 40% 1 18.12.2026 -
Andrew Robertson Tottenham Ativo 160 / 159 40% 3 16.12.2026 -
Luis Fernando Santa Clara Ativo 90 / 112 40% 1 16.12.2026 -
Pierre-Emile Højbjerg Olympique de Marseille Ativo 136 / 148 40% 1 15.12.2026 -
Orkun Kökçü Besiktas Ativo 138 / 141 40% 1 15.12.2026 -
Mio Backhaus SC Freiburg Ativo 120 / 142 40% 1 15.12.2026 -
Donnell McNeilly Nottingham Forest Ativo 120 / 118 40% 2 14.12.2026 -
Bernardo Fontes Braga Ativo 128 / 125 40% 1 13.12.2026 -
Guilherme Fernandes Córdoba Ativo 133 / 123 40% 1 13.12.2026 -
Dženan Pejčinović VfB Stuttgart Ativo 127 / 121 40% 2 12.12.2026 -
Anthony Caci Mainz 05 Ativo 150 / 145 40% 2 06.12.2026 -
Saša Lukić Ipswich Town Ativo 143 / 145 40% 2 06.12.2026 -
Jones El-Abdellaoui Celta Ativo 136 / 141 40% 1 06.12.2026 -
Marcos Llorente Atlético Madrid Ativo 160 / 159 40% 3 03.12.2026 -
Javi Galán Celta Ativo 137 / 149 40% 3 03.12.2026 -
Francesco Pio Esposito Inter Ativo 134 / 148 40% 1 03.12.2026 -
Luciano Gondou CSKA Moscow Ativo 143 / 120 40% 2 02.12.2026 -
Bernardo TSG Hoffenheim Ativo 127 / 135 40% 1 02.12.2026 -
Yuri Alberto Corinthians Ativo 130 / 135 40% 1 02.12.2026 -
Jon Gorrotxategi Real Sociedad Ativo 148 / 149 40% 2 29.11.2026 -
Eliezer Mayenda Stade Rennais Ativo 129 / 127 40% 2 29.11.2026 -
Antonio Blanco Alavés Ativo 136 / 140 40% 4 27.11.2026 -
Joakim Mæhle VfL Wolfsburg Ativo 131 / 128 40% 1 27.11.2026 -
Sem Westerveld Zaragoza Ativo 125 / 120 40% 1 27.11.2026 -
Karl Hein Werder Bremen Ativo 142 / 145 40% 1 27.11.2026 -
Ross Barkley Borussia Dortmund Ativo 148 / 141 40% 2 25.11.2026 -
Kaishu Sano Mainz 05 Ativo 142 / 141 40% 1 25.11.2026 -
Nikolay Zlatev Cherno More Ativo 110 / 103 40% 1 25.11.2026 -
Luis Vázquez Birmingham Ativo 120 / 131 40% 1 24.11.2026 -
Roberto Fernández Braga Ativo 147 / 145 40% 1 24.11.2026 -
Ajay Matthews Millwall Ativo 108 / 110 40% 1 24.11.2026 -
Matías Fernández-Pardo LOSC Lille Ativo 134 / 142 40% 1 24.11.2026 -
Federico Pereira Toluca Ativo 119 / 131 40% 2 21.11.2026 -
Héctor Bellerín Betis Ativo 138 / 136 40% 2 20.11.2026 -
Nahuel Tenaglia Alavés Ativo 145 / 143 40% 1 20.11.2026 -
Maximilian Arnold VfL Wolfsburg Ativo 157 / 141 40% 2 19.11.2026 -
Leandro Paredes Boca Juniors Ativo 139 / 150 40% 5 18.11.2026 -
Sebastián Cáceres Club America Ativo 128 / 138 40% 3 18.11.2026 -
Andrej Ilić Union Berlin Ativo 138 / 123 40% 3 17.11.2026 -
Albert Sambi Lokonga Hamburger SV Ativo 137 / 128 40% 2 17.11.2026 -
Eddie Nketiah Crystal Palace Ativo 150 / 130 40% 1 17.11.2026 -
Marc Cucurella Real Madrid Ativo 140 / 156 40% 1 15.11.2026 -
Alejandro Catena Osasuna Ativo 141 / 131 40% 2 13.11.2026 -
Xaver Schlager Nottingham Forest Ativo 153 / 149 40% 1 13.11.2026 -
Arkaitz Mariezkurrena Real Sociedad Ativo 102 / 125 40% 3 10.11.2026 -
Conrad Harder RB Leipzig Ativo 133 / 133 40% 1 10.11.2026 -
Santi Comesaña Villarreal Ativo 150 / 149 40% 1 10.11.2026 -
Jeremy Toljan Levante Ativo 123 / 131 40% 1 10.11.2026 -
Jon Guridi Sevilla Ativo 146 / 132 40% 3 09.11.2026 -
Dan Ballard Sunderland Ativo 151 / 140 40% 1 09.11.2026 -
Maurits Kjærgaard Red Bull Salzburg Ativo 134 / 127 40% 1 09.11.2026 -
Andrés Martín Racing Santander Perdido 137 / 140 40% 1 09.11.2026 -
Wouter Burger TSG Hoffenheim Ativo 155 / 145 40% 1 05.11.2026 -
Abdelkabir Abqar Getafe Ativo 144 / 130 40% 1 05.11.2026 -
Tyrell Malacia Leicester City Ativo 128 / 136 40% 1 04.11.2026 -
Ellyes Skhiri Köln Ativo 148 / 128 40% 1 02.11.2026 -
Lucas Torró Osasuna Ativo 151 / 134 40% 2 31.10.2026 -
Gorka Carrera Real Sociedad Ativo 126 / 126 40% 3 30.10.2026 -
Christian Nørgaard Everton Ativo 149 / 139 40% 2 30.10.2026 -
Ko Itakura Borussia Mönchengladbach Ativo 151 / 130 40% 1 30.10.2026 -
Sergej Milinković-Savić Al-Hilal Ativo 171 / 165 40% 1 28.10.2026 -
Mauro Arambarri River Plate Ativo 165 / 138 40% 4 27.10.2026 -
Senne Lynen Werder Bremen Ativo 127 / 127 40% 1 22.10.2026 -
Stephen Eustáquio Swansea City Ativo 145 / 135 40% 2 21.10.2026 -
Nicolò Tresoldi Club Brugge Ativo 134 / 140 40% 1 21.10.2026 -
Efraín Álvarez Guadalajara Ativo 137 / 122 40% 1 21.10.2026 -
Raphaël Guerreiro Bayern Munich Ativo 146 / 153 40% 2 17.10.2026 -
Victor Araujo Veracruz Ativo 157 / 147 40% 2 14.10.2026 -
Maximilian Eggestein SC Freiburg Ativo 151 / 141 40% 1 12.10.2026 -
Zinho Meunier KV Oostende Ativo 146 / 152 40% 2 11.10.2026 -
Jesús Gallardo Toluca Ativo 132 / 119 40% 1 11.10.2026 -
Aleksandar Pavlović Bayern Munich Ativo 149 / 152 40% 3 10.10.2026 -
Benjamin Henrichs RB Leipzig Ativo 141 / 155 40% 2 09.10.2026 -
Ola Aina Nottingham Forest Ativo 138 / 135 40% 1 09.10.2026 -
Beñat Turrientes Real Sociedad Ativo 142 / 145 40% 1 08.10.2026 -
Sergi Cardona Villarreal Ativo 138 / 145 40% 1 08.10.2026 -
Richard Ledezma Guadalajara Ativo 140 / 147 40% 2 06.10.2026 -
Evander FC Cincinnati Ativo 132 / 130 40% 4 05.10.2026 -
Jens Stage Werder Bremen Ativo 147 / 135 40% 1 04.10.2026 -
Adriano Bertaccini Anderlecht Ativo 131 / 131 40% 1 04.10.2026 -
Benedict Hollerbach Mainz 05 Ativo 135 / 133 40% 1 04.10.2026 -
Joachim Andersen Fulham Ativo 145 / 145 40% 2 30.09.2026 -
Alejandro Balde Barcelona Ativo 145 / 154 40% 1 30.09.2026 -
Luke Baartman Chippa United Ativo 94 / 102 40% 1 27.09.2026 -
Furkan Dursun Thun Ativo 103 / 110 40% 1 27.09.2026 -
Tijn den Boggende Utrecht Ativo 115 / 115 40% 1 26.09.2026 -
Rayan Bournemouth Ativo 145 / 147 40% 2 25.09.2026 -
Nicolás Fernández Mercau New York City Ativo 132 / 119 40% 1 22.09.2026 -
Erik Lira Cruz Azul Ativo 116 / 121 40% 1 21.09.2026 -
Carlos Espí Real Madrid Ativo 127 / 132 40% 1 21.09.2026 -
Grischa Prömel Heidenheim Ativo 155 / 145 40% 1 18.09.2026 -
Logan Costa Villarreal Ativo 150 / 149 40% 1 18.09.2026 -
Alfredo Garcia La Equidad Ativo 128 / 148 40% 2 17.09.2026 -
Sergio Gómez Real Sociedad Ativo 152 / 147 40% 1 17.09.2026 -
Yangel Herrera Real Sociedad Ativo 144 / 134 40% 1 16.09.2026 -
Rani Khedira Union Berlin Ativo 126 / 141 40% 1 15.09.2026 -
Jesús Angulo Tigres Ativo 137 / 123 40% 1 15.09.2026 -
Cesar Corona Veracruz Ativo 116 / 144 40% 1 15.09.2026 -
Vitor Roque Palmeiras Ativo 131 / 144 40% 1 13.09.2026 -
Yoshan Valois Lanús Ativo 105 / 114 40% 1 12.09.2026 -
Nathan Collins Brentford Ativo 143 / 142 40% 2 10.09.2026 -
Pau Torres Aston Villa Ativo 147 / 150 40% 1 10.09.2026 -
André Wolverhampton Ativo 140 / 147 40% 1 09.09.2026 -
Facundo Medina Bayer Leverkusen Ativo 138 / 155 40% 1 05.09.2026 -
Nicolas Seiwald RB Leipzig Ativo 130 / 139 40% 1 03.09.2026 -
Marc Roca Betis Ativo 133 / 135 40% 1 03.09.2026 -
Sergio Quintero La Equidad Ativo 125 / 137 40% 1 01.09.2026 -
Jeff Chabot VfB Stuttgart Ativo 142 / 136 40% 1 31.08.2026 -
Cheick Doucouré Crystal Palace Ativo 133 / 146 40% 1 26.08.2026 -
Will Lankshear Middlesbrough Ativo 127 / 119 40% 1 03.08.2026 -
Youri Tielemans Manchester United Ativo 170 / 149 40% 1 01.08.2026 -
Bernardo Silva Real Madrid Ativo 161 / 163 40% 1 01.08.2026 -